createdAt,value
2018-07-04T00:01:18.027Z,1.80
2018-07-04T00:03:57.905Z,1.83
2018-07-04T00:06:37.917Z,1.53
2018-07-04T00:09:17.830Z,2.30
2018-07-04T00:11:57.749Z,1.90
2018-07-04T00:14:37.558Z,1.57
2018-07-04T00:17:17.522Z,1.80
2018-07-04T00:19:57.353Z,1.77
2018-07-04T00:22:37.135Z,1.77
2018-07-04T00:25:16.945Z,1.90
2018-07-04T00:27:56.635Z,1.60
2018-07-04T00:30:36.582Z,1.60
2018-07-04T00:33:16.445Z,1.93
2018-07-04T00:35:56.378Z,1.90
2018-07-04T00:38:36.106Z,1.90
2018-07-04T00:41:15.998Z,1.63
2018-07-04T00:43:55.677Z,1.97
2018-07-04T00:46:35.578Z,1.93
2018-07-04T00:49:15.543Z,1.70
2018-07-04T00:51:55.635Z,2.00
2018-07-04T00:54:35.346Z,1.47
2018-07-04T00:57:15.138Z,1.53
2018-07-04T00:59:55.011Z,1.70
2018-07-04T01:02:35.046Z,1.57
2018-07-04T01:05:14.966Z,1.60
2018-07-04T01:07:54.864Z,2.37
2018-07-04T01:10:34.736Z,2.17
2018-07-04T01:13:14.493Z,1.83
2018-07-04T01:15:54.385Z,1.77
2018-07-04T01:18:34.414Z,2.00
2018-07-04T01:21:15.358Z,1.63
2018-07-04T01:23:55.508Z,2.10
2018-07-04T01:26:35.929Z,1.60
2018-07-04T01:29:15.869Z,1.80
2018-07-04T01:31:55.763Z,1.80
2018-07-04T01:34:35.670Z,1.43
2018-07-04T01:37:15.624Z,1.60
2018-07-04T01:39:55.570Z,2.43
2018-07-04T01:42:35.482Z,1.83
2018-07-04T01:45:15.470Z,1.50
2018-07-04T01:47:56.290Z,1.80
2018-07-04T01:50:36.226Z,1.90
2018-07-04T01:53:16.210Z,1.80
2018-07-04T01:55:56.078Z,1.50
2018-07-04T01:58:35.818Z,1.80
2018-07-04T02:01:15.720Z,2.00
2018-07-04T02:03:55.778Z,1.70
2018-07-04T02:06:35.586Z,1.57
2018-07-04T02:09:15.285Z,1.40
2018-07-04T02:11:56.102Z,1.80
2018-07-04T02:14:36.131Z,1.10
2018-07-04T02:17:16.034Z,1.83
2018-07-04T02:19:55.929Z,1.37
2018-07-04T02:22:35.850Z,1.30
2018-07-04T02:25:15.879Z,1.30
2018-07-04T02:27:55.923Z,1.50
2018-07-04T02:30:35.822Z,1.93
2018-07-04T02:33:15.754Z,1.30
2018-07-04T02:35:55.650Z,1.67
2018-07-04T02:38:35.637Z,1.70
2018-07-04T02:41:15.586Z,1.67
2018-07-04T02:43:55.586Z,1.70
2018-07-04T02:46:40.381Z,1.73
2018-07-04T02:49:21.457Z,1.70
2018-07-04T02:52:01.286Z,1.60
2018-07-04T02:54:41.322Z,2.00
2018-07-04T02:57:21.342Z,1.80
2018-07-04T03:00:01.349Z,1.93
2018-07-04T03:02:41.357Z,2.23
2018-07-04T03:05:21.293Z,1.63
2018-07-04T03:08:01.227Z,1.70
2018-07-04T03:10:41.218Z,1.50
2018-07-04T03:13:21.133Z,1.77
2018-07-04T03:16:01.066Z,2.00
2018-07-04T03:18:41.146Z,1.60
2018-07-04T03:21:21.098Z,1.73
2018-07-04T03:24:01.021Z,1.70
2018-07-04T03:26:40.938Z,1.83
2018-07-04T03:29:20.918Z,1.73
2018-07-04T03:32:00.741Z,1.87
2018-07-04T03:34:40.626Z,1.80
2018-07-04T03:37:20.686Z,1.30
2018-07-04T03:40:00.695Z,1.90
2018-07-04T03:42:40.796Z,1.60
2018-07-04T03:45:20.746Z,1.83
2018-07-04T03:48:00.737Z,2.20
2018-07-04T03:50:40.696Z,1.90
2018-07-04T03:53:20.581Z,1.63
2018-07-04T03:56:00.543Z,1.77
2018-07-04T03:58:40.378Z,1.87
2018-07-04T04:01:20.282Z,1.70
2018-07-04T04:04:00.266Z,1.50
2018-07-04T04:06:40.174Z,1.97
2018-07-04T04:09:20.165Z,1.60
2018-07-04T04:12:00.033Z,1.60
2018-07-04T04:14:40.018Z,1.80
2018-07-04T04:17:19.969Z,1.60
2018-07-04T04:19:59.898Z,1.67
2018-07-04T04:22:39.675Z,2.20
2018-07-04T04:25:19.701Z,2.00
2018-07-04T04:27:59.722Z,1.70
2018-07-04T04:30:39.548Z,1.67
2018-07-04T04:33:19.401Z,1.80
2018-07-04T04:35:59.137Z,2.13
2018-07-04T04:38:39.225Z,2.00
2018-07-04T04:41:19.165Z,2.00
2018-07-04T04:43:58.997Z,1.87
2018-07-04T04:46:38.899Z,1.70
2018-07-04T04:49:18.830Z,1.60
2018-07-04T04:51:58.803Z,1.97
2018-07-04T04:54:38.763Z,2.00
2018-07-04T04:57:18.756Z,1.83
2018-07-04T04:59:58.702Z,1.63
2018-07-04T05:02:38.727Z,1.67
2018-07-04T05:05:18.600Z,1.73
2018-07-04T05:07:58.513Z,1.90
2018-07-04T05:10:38.305Z,2.00
2018-07-04T05:13:18.174Z,2.17
2018-07-04T05:15:57.994Z,1.73
2018-07-04T05:18:37.825Z,1.37
2018-07-04T05:21:17.766Z,2.07
2018-07-04T05:23:57.694Z,1.67
2018-07-04T05:26:37.658Z,1.80
2018-07-04T05:29:17.640Z,1.73
2018-07-04T05:31:57.565Z,2.00
2018-07-04T05:34:37.593Z,1.70
2018-07-04T05:37:17.674Z,2.07
2018-07-04T05:39:57.585Z,1.77
2018-07-04T05:42:37.422Z,1.73
2018-07-04T05:45:17.410Z,2.00
2018-07-04T05:47:57.493Z,1.40
2018-07-04T05:50:37.298Z,1.50
2018-07-04T05:53:17.226Z,1.40
2018-07-04T05:55:57.182Z,1.50
2018-07-04T05:58:37.061Z,2.00
2018-07-04T06:01:16.846Z,1.60
2018-07-04T06:03:56.730Z,1.50
2018-07-04T06:06:36.666Z,1.60
2018-07-04T06:09:16.546Z,1.30
2018-07-04T06:11:56.357Z,1.23
2018-07-04T06:14:36.365Z,1.67
2018-07-04T06:17:16.305Z,1.30
2018-07-04T06:19:56.194Z,1.20
2018-07-04T06:22:36.142Z,1.00
2018-07-04T06:25:16.043Z,1.13
2018-07-04T06:27:55.958Z,0.90
2018-07-04T06:30:35.657Z,1.10
2018-07-04T06:33:15.564Z,0.90
2018-07-04T06:35:55.566Z,1.10
2018-07-04T06:38:23.053Z,1.30
2018-07-04T06:40:50.535Z,0.80
2018-07-04T06:43:18.086Z,1.10
2018-07-04T06:45:45.570Z,1.23
2018-07-04T06:48:13.050Z,0.90
2018-07-04T06:50:40.594Z,0.90
2018-07-04T06:53:08.090Z,0.80
2018-07-04T06:55:35.617Z,0.80
2018-07-04T06:58:03.098Z,1.00
2018-07-04T07:00:30.618Z,0.93
2018-07-04T07:03:10.391Z,0.73
2018-07-04T07:05:50.203Z,1.43
2018-07-04T07:08:30.105Z,0.83
2018-07-04T07:11:10.056Z,0.97
2018-07-04T07:13:49.849Z,1.03
2018-07-04T07:16:29.730Z,1.00
2018-07-04T07:19:09.718Z,0.87
2018-07-04T07:21:49.758Z,0.90
2018-07-04T07:24:29.721Z,1.00
2018-07-04T07:27:09.657Z,1.00
2018-07-04T07:29:49.381Z,1.00
2018-07-04T07:32:29.269Z,0.90
2018-07-04T07:35:09.210Z,1.00
2018-07-04T07:37:49.193Z,0.97
2018-07-04T07:40:28.913Z,0.90
2018-07-04T07:43:09.110Z,1.07
2018-07-04T07:45:48.874Z,1.10
2018-07-04T07:48:28.730Z,0.70
2018-07-04T07:51:08.510Z,0.90
2018-07-04T07:53:48.419Z,0.53
2018-07-04T07:56:28.174Z,0.93
2018-07-04T07:59:08.264Z,0.80
2018-07-04T08:01:48.578Z,0.80
2018-07-04T08:04:28.409Z,0.73
2018-07-04T08:07:08.349Z,0.93
2018-07-04T08:09:48.086Z,0.80
2018-07-04T08:12:27.874Z,1.20
2018-07-04T08:15:07.596Z,1.80
2018-07-04T08:17:47.494Z,0.90
2018-07-04T08:20:27.294Z,1.37
2018-07-04T08:23:07.110Z,1.60
2018-07-04T08:25:47.116Z,1.30
2018-07-04T08:28:27.766Z,0.90
2018-07-04T08:31:07.587Z,1.00
2018-07-04T08:33:47.537Z,1.47
2018-07-04T08:36:27.404Z,1.10
2018-07-04T08:39:07.181Z,1.00
2018-07-04T08:41:47.098Z,1.20
2018-07-04T08:44:26.953Z,1.07
2018-07-04T08:47:06.922Z,1.20
2018-07-04T08:49:46.906Z,1.00
2018-07-04T08:52:26.934Z,1.17
2018-07-04T08:55:06.615Z,0.90
2018-07-04T08:57:46.558Z,1.17
2018-07-04T09:00:26.493Z,1.00
2018-07-04T09:03:06.306Z,1.40
2018-07-04T09:05:46.081Z,1.17
2018-07-04T09:08:25.892Z,1.07
2018-07-04T09:11:05.841Z,0.93
2018-07-04T09:13:45.659Z,1.00
2018-07-04T09:16:25.462Z,1.10
2018-07-04T09:19:05.463Z,1.30
2018-07-04T09:21:45.351Z,1.30
2018-07-04T09:24:25.405Z,2.83
2018-07-04T09:27:05.121Z,2.77
2018-07-04T09:29:44.971Z,1.50
2018-07-04T09:32:24.698Z,1.87
2018-07-04T09:35:04.606Z,1.13
2018-07-04T09:37:44.623Z,1.20
2018-07-04T09:40:24.540Z,0.97
2018-07-04T09:43:04.523Z,1.20
2018-07-04T09:45:44.414Z,1.50
2018-07-04T09:48:24.278Z,1.40
2018-07-04T09:51:04.204Z,1.50
2018-07-04T09:53:44.134Z,1.10
2018-07-04T09:56:24.115Z,1.37
2018-07-04T09:59:03.868Z,1.33
2018-07-04T10:01:43.802Z,1.40
2018-07-04T10:04:23.664Z,1.50
2018-07-04T10:07:03.501Z,1.30
2018-07-04T10:09:43.394Z,1.07
2018-07-04T10:12:23.102Z,1.37
2018-07-04T10:15:03.053Z,1.30
2018-07-04T10:17:42.906Z,1.33
2018-07-04T10:20:22.837Z,1.03
2018-07-04T10:23:02.499Z,1.37
2018-07-04T10:25:42.138Z,1.50
2018-07-04T10:28:22.069Z,1.40
2018-07-04T10:31:01.939Z,1.20
2018-07-04T10:33:41.898Z,1.33
2018-07-04T10:36:21.838Z,1.27
2018-07-04T10:39:01.806Z,1.40
2018-07-04T10:41:41.738Z,1.03
2018-07-04T10:44:21.678Z,1.13
2018-07-04T10:47:01.442Z,1.30
2018-07-04T10:49:35.261Z,1.17
2018-07-04T10:52:15.286Z,1.10
2018-07-04T10:54:55.297Z,1.00
2018-07-04T10:57:34.997Z,1.40
2018-07-04T11:00:14.930Z,1.20
2018-07-04T11:02:54.934Z,1.43
2018-07-04T11:05:34.914Z,1.10
2018-07-04T11:08:14.867Z,1.13
2018-07-04T11:10:54.928Z,1.20
2018-07-04T11:13:34.931Z,1.60
2018-07-04T11:16:14.741Z,1.10
2018-07-04T11:18:54.686Z,1.30
2018-07-04T11:21:34.661Z,1.50
2018-07-04T11:24:14.514Z,1.20
2018-07-04T11:26:54.470Z,1.23
2018-07-04T11:29:34.382Z,0.90
2018-07-04T11:32:14.254Z,1.30
2018-07-04T11:34:54.209Z,1.40
2018-07-04T11:37:34.179Z,1.30
2018-07-04T11:40:14.054Z,1.10
2018-07-04T11:42:47.981Z,1.40
2018-07-04T11:45:27.796Z,1.20
2018-07-04T11:47:55.306Z,1.20
2018-07-04T11:50:22.805Z,1.40
2018-07-04T11:52:50.301Z,1.30
2018-07-04T11:55:17.852Z,0.93
2018-07-04T11:57:45.325Z,1.40
2018-07-04T12:00:12.877Z,1.40
2018-07-04T12:02:40.373Z,1.10
2018-07-04T12:05:20.305Z,1.13
2018-07-04T12:07:47.862Z,1.00
2018-07-04T12:10:15.350Z,1.10
2018-07-04T12:12:42.834Z,1.40
2018-07-04T12:15:10.339Z,1.20
2018-07-04T12:17:37.823Z,1.03
2018-07-04T12:20:05.302Z,1.05
2018-07-04T12:22:35.046Z,1.30
2018-07-04T12:25:02.548Z,1.52
2018-07-04T12:27:30.054Z,1.00
2018-07-04T12:29:57.553Z,1.05
2018-07-04T12:32:25.039Z,1.27
2018-07-04T12:34:52.597Z,1.20
2018-07-04T12:37:20.127Z,1.40
2018-07-04T12:39:47.624Z,1.23
2018-07-04T12:42:15.132Z,1.37
2018-07-04T12:44:42.633Z,1.10
2018-07-04T12:47:16.405Z,1.00
2018-07-04T12:49:43.909Z,1.60
2018-07-04T12:52:11.402Z,1.40
2018-07-04T12:54:44.454Z,1.45
2018-07-04T12:57:24.342Z,1.40
2018-07-04T13:00:04.203Z,1.30
2018-07-04T13:02:44.055Z,1.57
2018-07-04T13:05:24.047Z,1.67
2018-07-04T13:08:03.958Z,1.60
2018-07-04T13:10:43.891Z,1.85
2018-07-04T13:13:23.810Z,1.10
2018-07-04T13:16:03.739Z,1.40
2018-07-04T13:18:43.647Z,1.40
2018-07-04T13:21:23.625Z,1.02
2018-07-04T13:24:03.621Z,1.05
2018-07-04T13:26:43.510Z,1.10
2018-07-04T13:29:17.479Z,1.37
2018-07-04T13:31:57.429Z,1.07
2018-07-04T13:34:37.038Z,1.07
2018-07-04T13:37:17.038Z,1.17
2018-07-04T13:39:56.898Z,1.10
2018-07-04T13:42:36.716Z,1.55
2018-07-04T13:45:16.761Z,1.75
2018-07-04T13:47:56.734Z,1.42
2018-07-04T13:50:36.613Z,1.80
2018-07-04T13:53:16.486Z,0.98
2018-07-04T13:55:56.210Z,1.07
2018-07-04T13:58:36.124Z,1.20
2018-07-04T14:01:15.947Z,1.27
2018-07-04T14:03:55.829Z,1.10
2018-07-04T14:06:35.751Z,1.30
2018-07-04T14:09:15.986Z,1.10
2018-07-04T14:11:56.048Z,1.10
2018-07-04T14:14:35.966Z,1.10
2018-07-04T14:17:16.076Z,1.10
2018-07-04T14:19:55.962Z,1.45
2018-07-04T14:22:35.938Z,1.15
2018-07-04T14:25:15.832Z,1.07
2018-07-04T14:27:55.783Z,1.00
2018-07-04T14:30:35.738Z,1.40
2018-07-04T14:33:15.725Z,1.25
2018-07-04T14:35:55.505Z,1.30
2018-07-04T14:38:35.422Z,1.10
2018-07-04T14:41:15.365Z,1.00
2018-07-04T14:43:55.246Z,0.90
2018-07-04T14:46:35.339Z,0.90
2018-07-04T14:49:15.150Z,1.10
2018-07-04T14:51:55.072Z,1.50
2018-07-04T14:54:34.887Z,2.83
2018-07-04T14:57:14.907Z,1.07
2018-07-04T14:59:54.898Z,1.47
2018-07-04T15:02:34.912Z,1.10
2018-07-04T15:05:14.830Z,2.40
2018-07-04T15:07:54.759Z,1.40
2018-07-04T15:10:34.695Z,1.20
2018-07-04T15:13:14.662Z,1.20
2018-07-04T15:15:54.759Z,1.50
2018-07-04T15:18:34.750Z,0.90
2018-07-04T15:21:14.659Z,0.82
2018-07-04T15:23:55.165Z,0.78
2018-07-04T15:26:35.442Z,0.82
2018-07-04T15:29:15.334Z,1.05
2018-07-04T15:31:55.380Z,0.95
2018-07-04T15:34:35.273Z,0.90
2018-07-04T15:37:15.226Z,1.00
2018-07-04T15:39:55.170Z,1.27
2018-07-04T15:42:35.168Z,0.78
2018-07-04T15:45:15.039Z,0.98
2018-07-04T15:47:54.967Z,1.05
2018-07-04T15:50:34.946Z,1.00
2018-07-04T15:53:14.860Z,0.80
2018-07-04T15:55:54.838Z,1.05
2018-07-04T15:58:36.877Z,0.78
2018-07-04T16:01:16.792Z,0.90
2018-07-04T16:03:56.732Z,0.70
2018-07-04T16:06:36.691Z,0.80
2018-07-04T16:09:16.494Z,0.65
2018-07-04T16:11:56.431Z,0.85
2018-07-04T16:14:36.299Z,0.75
2018-07-04T16:17:16.327Z,0.65
2018-07-04T16:19:56.238Z,0.72
2018-07-04T16:22:36.114Z,0.88
2018-07-04T16:25:16.135Z,0.80
2018-07-04T16:27:55.886Z,0.70
2018-07-04T16:30:35.858Z,1.40
2018-07-04T16:33:15.706Z,1.10
2018-07-04T16:35:55.478Z,3.42
2018-07-04T16:38:35.402Z,0.93
2018-07-04T16:41:15.406Z,0.68
2018-07-04T16:43:55.162Z,1.42
2018-07-04T16:46:35.007Z,0.80
2018-07-04T16:49:14.822Z,0.60
2018-07-04T16:51:54.838Z,0.75
2018-07-04T16:54:34.644Z,0.82
2018-07-04T16:57:14.611Z,0.80
2018-07-04T16:59:54.619Z,0.75
2018-07-04T17:02:34.595Z,1.02
2018-07-04T17:05:14.382Z,0.75
2018-07-04T17:07:54.500Z,0.98
2018-07-04T17:10:34.462Z,0.90
2018-07-04T17:13:14.334Z,1.22
2018-07-04T17:15:54.254Z,0.80
2018-07-04T17:18:34.059Z,1.07
2018-07-04T17:21:14.074Z,0.80
2018-07-04T17:23:54.026Z,1.13
2018-07-04T17:26:27.958Z,1.00
2018-07-04T17:29:07.766Z,1.20
2018-07-04T17:31:47.630Z,1.00
2018-07-04T17:34:27.517Z,1.20
2018-07-04T17:37:07.438Z,1.15
2018-07-04T17:39:47.243Z,1.10
2018-07-04T17:42:27.226Z,1.30
2018-07-04T17:45:07.190Z,1.13
2018-07-04T17:47:47.029Z,1.03
2018-07-04T17:50:27.811Z,1.43
2018-07-04T17:53:07.713Z,1.33
2018-07-04T17:55:47.583Z,1.07
2018-07-04T17:58:27.566Z,0.97
2018-07-04T18:01:07.365Z,1.73
2018-07-04T18:03:47.336Z,1.20
2018-07-04T18:06:26.998Z,1.07
2018-07-04T18:09:06.775Z,1.13
2018-07-04T18:11:46.761Z,0.97
2018-07-04T18:14:26.728Z,0.93
2018-07-04T18:17:06.634Z,0.90
2018-07-04T18:19:46.576Z,1.20
2018-07-04T18:22:26.443Z,0.90
2018-07-04T18:25:06.363Z,1.10
2018-07-04T18:27:46.294Z,0.90
2018-07-04T18:30:26.200Z,1.20
2018-07-04T18:33:06.026Z,0.90
2018-07-04T18:35:45.906Z,1.10
2018-07-04T18:38:25.737Z,1.13
2018-07-04T18:41:05.723Z,0.80
2018-07-04T18:43:45.590Z,0.73
2018-07-04T18:46:25.633Z,1.40
2018-07-04T18:49:05.523Z,1.03
2018-07-04T18:51:45.406Z,1.10
2018-07-04T18:54:25.340Z,1.50
2018-07-04T18:57:05.254Z,1.30
2018-07-04T18:59:45.142Z,1.20
2018-07-04T19:02:24.966Z,1.17
2018-07-04T19:05:04.842Z,0.80
2018-07-04T19:07:44.770Z,1.00
2018-07-04T19:10:24.812Z,1.30
2018-07-04T19:13:04.660Z,0.93
2018-07-04T19:15:44.628Z,1.40
2018-07-04T19:18:24.550Z,1.10
2018-07-04T19:21:04.570Z,0.83
2018-07-04T19:23:44.545Z,1.13
2018-07-04T19:26:24.188Z,1.17
2018-07-04T19:29:04.245Z,1.17
2018-07-04T19:31:44.137Z,0.93
2018-07-04T19:34:24.054Z,1.00
2018-07-04T19:37:04.022Z,0.80
2018-07-04T19:39:43.865Z,1.30
2018-07-04T19:42:23.943Z,0.93
2018-07-04T19:45:03.735Z,1.27
2018-07-04T19:47:43.699Z,1.17
2018-07-04T19:50:23.539Z,1.00
2018-07-04T19:53:03.378Z,0.87
2018-07-04T19:55:43.261Z,1.50
2018-07-04T19:58:23.228Z,1.43
2018-07-04T20:01:03.230Z,0.70
2018-07-04T20:03:43.313Z,1.07
2018-07-04T20:13:21.839Z,1.70
2018-07-04T20:16:02.471Z,1.37
2018-07-04T20:18:44.450Z,1.37
2018-07-04T20:21:24.377Z,1.07
2018-07-04T20:24:04.195Z,0.93
2018-07-04T20:26:43.938Z,0.80
2018-07-04T20:29:23.584Z,0.83
2018-07-04T20:32:03.433Z,1.10
2018-07-04T20:34:43.227Z,0.83
2018-07-04T20:37:23.047Z,1.33
2018-07-04T20:40:02.974Z,0.70
2018-07-04T20:42:42.912Z,1.00
2018-07-04T20:45:22.934Z,1.20
2018-07-04T20:48:02.807Z,0.77
2018-07-04T20:50:42.601Z,1.00
2018-07-04T20:53:22.690Z,0.87
2018-07-04T20:56:02.670Z,1.00
2018-07-04T20:58:42.662Z,0.83
2018-07-04T21:01:22.631Z,1.10
2018-07-04T21:04:02.459Z,1.00
2018-07-04T21:06:42.436Z,1.10
2018-07-04T21:09:22.155Z,0.90
2018-07-04T21:12:02.183Z,0.93
2018-07-04T21:14:42.145Z,1.10
2018-07-04T21:17:22.129Z,1.03
2018-07-04T21:20:02.023Z,0.80
2018-07-04T21:22:41.950Z,0.87
2018-07-04T21:25:21.854Z,0.90
2018-07-04T21:28:01.774Z,0.60
2018-07-04T21:30:41.662Z,0.70
2018-07-04T21:33:21.792Z,0.97
2018-07-04T21:36:01.578Z,1.00
2018-07-04T21:38:41.474Z,1.00
2018-07-04T21:41:21.385Z,0.73
2018-07-04T21:44:01.399Z,1.03
2018-07-04T21:46:41.377Z,1.03
2018-07-04T21:49:21.365Z,0.80
2018-07-04T21:52:01.276Z,0.80
2018-07-04T21:54:41.298Z,0.77
2018-07-04T21:57:21.307Z,1.07
2018-07-04T22:00:01.502Z,0.70
2018-07-04T22:02:41.384Z,0.63
2018-07-04T22:05:21.469Z,0.60
2018-07-04T22:08:01.350Z,0.70
2018-07-04T22:10:41.254Z,0.70
2018-07-04T22:13:21.242Z,0.83
2018-07-04T22:16:01.159Z,0.63
2018-07-04T22:18:41.105Z,0.83
2018-07-04T22:21:20.900Z,0.70
2018-07-04T22:24:00.929Z,1.23
2018-07-04T22:26:40.796Z,0.60
2018-07-04T22:29:20.658Z,0.70
2018-07-04T22:32:00.622Z,0.80
2018-07-04T22:34:40.470Z,1.00
2018-07-04T22:37:20.395Z,0.80
2018-07-04T22:40:00.371Z,1.17
2018-07-04T22:42:40.374Z,0.50
2018-07-04T22:45:20.357Z,0.63
2018-07-04T22:48:00.406Z,0.97
2018-07-04T22:50:40.370Z,1.20
2018-07-04T22:53:23.373Z,0.90
2018-07-04T22:56:03.318Z,0.80
2018-07-04T22:58:43.185Z,0.70
2018-07-04T23:01:22.982Z,0.80
2018-07-04T23:04:03.000Z,1.00
2018-07-04T23:06:42.823Z,0.67
2018-07-04T23:09:22.822Z,0.80
2018-07-04T23:12:02.695Z,0.70
2018-07-04T23:14:42.690Z,0.60
2018-07-04T23:17:22.491Z,0.80
2018-07-04T23:20:02.529Z,0.70
2018-07-04T23:22:42.582Z,0.90
2018-07-04T23:25:22.527Z,0.60
2018-07-04T23:28:02.258Z,0.93
2018-07-04T23:30:41.970Z,0.60
2018-07-04T23:33:21.762Z,0.80
2018-07-04T23:36:01.631Z,0.83
2018-07-04T23:38:41.494Z,0.77
2018-07-04T23:41:21.299Z,1.00
2018-07-04T23:44:01.382Z,0.80
2018-07-04T23:46:41.306Z,0.87
2018-07-04T23:49:21.224Z,0.80
2018-07-04T23:52:01.350Z,0.70
2018-07-04T23:54:41.291Z,1.00
2018-07-04T23:57:21.191Z,0.90
